Time;durP1;ratioP1;P1;durP2;ratioP2;P2;SDS_P1;SDS_P2;PMS_P1;PMS_P2;Temp;Humidity;BMP_temperature;BMP_pressure;BME280_temperature;BME280_humidity;BME280_pressure;Samples;Min_cycle;Max_cycle;Signal;HPM_P1;HPM_P2
2022/03/03 00:02:17;;;;;;;12.73;9.33;;;5.60;1.00;;;;;;5023093;28;20204;-57
2022/03/03 00:04:44;;;;;;;13.60;9.40;;;5.40;1.00;;;;;;5027035;28;20211;-57
2022/03/03 00:07:11;;;;;;;12.43;9.00;;;5.20;1.00;;;;;;5027179;28;20242;-58
2022/03/03 00:09:38;;;;;;;14.80;10.30;;;5.10;1.00;;;;;;5025333;28;20259;-57
2022/03/03 00:12:05;;;;;;;15.83;9.50;;;5.00;1.00;;;;;;5024461;28;20673;-57
2022/03/03 00:14:32;;;;;;;15.07;9.50;;;4.90;99.90;;;;;;5021818;28;20202;-57
2022/03/03 00:16:59;;;;;;;13.47;9.57;;;4.80;1.00;;;;;;5027735;28;20197;-57
2022/03/03 00:19:26;;;;;;;13.20;9.90;;;4.80;99.90;;;;;;5023767;28;20203;-55
2022/03/03 00:21:53;;;;;;;13.87;9.73;;;4.70;1.00;;;;;;5030341;28;20277;-55
2022/03/03 00:24:19;;;;;;;15.53;9.57;;;4.70;99.90;;;;;;5031467;28;20334;-57
2022/03/03 00:26:46;;;;;;;14.33;9.83;;;4.70;99.90;;;;;;5029118;28;20238;-57
2022/03/03 00:29:13;;;;;;;13.63;9.53;;;4.80;99.90;;;;;;5029492;28;20304;-60
2022/03/03 00:31:40;;;;;;;13.13;10.10;;;4.80;99.90;;;;;;5030499;28;20209;-56
2022/03/03 00:34:07;;;;;;;13.10;8.87;;;4.70;99.90;;;;;;5031657;28;20208;-55
2022/03/03 00:36:34;;;;;;;16.57;10.00;;;4.60;99.90;;;;;;5031577;28;20222;-58
2022/03/03 00:39:03;;;;;;;14.37;9.23;;;4.60;99.90;;;;;;5022023;28;20196;-58
2022/03/03 00:41:30;;;;;;;14.60;9.13;;;4.60;99.90;;;;;;5028864;28;20916;-58
2022/03/03 00:43:56;;;;;;;13.87;10.00;;;4.60;99.90;;;;;;5028120;28;20239;-58
2022/03/03 00:46:27;;;;;;;14.17;9.00;;;4.60;99.90;;;;;;5018531;28;20209;-58
2022/03/03 00:48:55;;;;;;;14.83;9.27;;;4.70;99.90;;;;;;5029105;28;20204;-58
2022/03/03 00:51:22;;;;;;;14.80;9.23;;;4.70;99.90;;;;;;5033583;28;20311;-58
2022/03/03 00:53:50;;;;;;;15.97;9.73;;;4.70;99.90;;;;;;5028321;28;20356;-57
2022/03/03 00:56:18;;;;;;;13.30;9.73;;;4.60;99.90;;;;;;5032748;28;20196;-57
2022/03/03 00:58:46;;;;;;;14.97;9.70;;;4.60;99.90;;;;;;5031863;28;20232;-57
2022/03/03 01:01:13;;;;;;;13.80;8.93;;;4.60;99.90;;;;;;5031457;28;20612;-58
2022/03/03 01:03:41;;;;;;;13.60;9.30;;;4.60;99.90;;;;;;5028733;28;20826;-57
2022/03/03 01:06:09;;;;;;;14.27;9.47;;;4.50;99.90;;;;;;5028265;28;20199;-59
2022/03/03 01:08:36;;;;;;;13.83;9.73;;;4.50;99.90;;;;;;5030427;28;20574;-57
2022/03/03 01:11:06;;;;;;;13.20;9.20;;;4.50;99.90;;;;;;5030248;28;20217;-57
2022/03/03 01:13:33;;;;;;;14.97;9.60;;;4.60;99.90;;;;;;5028820;28;20329;-57
2022/03/03 01:16:00;;;;;;;16.20;9.40;;;4.70;99.90;;;;;;5030479;28;20224;-55
2022/03/03 01:18:27;;;;;;;12.97;9.30;;;4.70;99.90;;;;;;5025501;28;20201;-58
2022/03/03 01:20:57;;;;;;;15.80;9.40;;;4.60;99.90;;;;;;5028129;28;20203;-59
2022/03/03 01:23:23;;;;;;;13.43;9.13;;;4.50;99.90;;;;;;5030617;28;20647;-59
2022/03/03 01:25:51;;;;;;;13.90;9.17;;;4.40;99.90;;;;;;5033525;28;20567;-56
2022/03/03 01:28:17;;;;;;;13.23;8.73;;;4.40;99.90;;;;;;5033841;28;20265;-58
2022/03/03 01:30:44;;;;;;;14.83;8.67;;;4.50;99.90;;;;;;5027749;28;20948;-57
2022/03/03 01:33:12;;;;;;;12.43;9.17;;;4.50;99.90;;;;;;5029513;28;20281;-59
2022/03/03 01:35:40;;;;;;;14.30;9.37;;;4.40;99.90;;;;;;5028157;28;20214;-57
2022/03/03 01:38:08;;;;;;;16.00;9.73;;;4.20;99.90;;;;;;5028383;28;20209;-57
2022/03/03 01:40:36;;;;;;;14.93;9.87;;;4.20;99.90;;;;;;5029506;28;20645;-58
2022/03/03 01:43:03;;;;;;;14.23;10.00;;;4.20;99.90;;;;;;5028365;28;20208;-58
2022/03/03 01:45:30;;;;;;;13.77;9.40;;;4.20;99.90;;;;;;5028933;28;20213;-58
2022/03/03 01:47:58;;;;;;;13.90;9.67;;;4.10;99.90;;;;;;5030433;28;20507;-59
2022/03/03 01:50:24;;;;;;;12.60;9.17;;;4.00;99.90;;;;;;5023265;28;20203;-56
2022/03/03 01:52:51;;;;;;;15.03;9.30;;;3.90;99.90;;;;;;5027528;28;20231;-57
2022/03/03 01:55:18;;;;;;;19.13;10.17;;;3.90;99.90;;;;;;5026259;28;20227;-58
2022/03/03 01:57:48;;;;;;;17.03;9.93;;;4.00;99.90;;;;;;5032027;28;20201;-57
2022/03/03 02:00:16;;;;;;;17.40;10.93;;;3.90;99.90;;;;;;5025609;28;22097;-57
2022/03/03 02:02:43;;;;;;;16.80;10.27;;;4.00;99.90;;;;;;5030773;28;20203;-57
2022/03/03 02:05:10;;;;;;;13.30;9.17;;;4.10;99.90;;;;;;5032458;28;20218;-58
2022/03/03 02:07:37;;;;;;;15.10;9.97;;;4.20;99.90;;;;;;5038115;28;20245;-58
2022/03/03 02:10:05;;;;;;;15.47;9.73;;;4.30;99.90;;;;;;5029177;28;20609;-57
2022/03/03 02:12:32;;;;;;;16.60;9.30;;;4.30;99.90;;;;;;5029933;28;20255;-59
2022/03/03 02:14:59;;;;;;;17.37;9.50;;;4.30;99.90;;;;;;5019974;28;20196;-56
2022/03/03 02:17:27;;;;;;;14.73;9.83;;;4.40;99.90;;;;;;5017821;28;20320;-57
2022/03/03 02:19:54;;;;;;;13.10;9.00;;;4.30;99.90;;;;;;5025138;28;20256;-57
2022/03/03 02:22:21;;;;;;;15.40;9.60;;;4.40;99.90;;;;;;5021325;28;20206;-58
2022/03/03 02:24:49;;;;;;;17.33;9.40;;;4.20;99.90;;;;;;5028589;28;20197;-58
2022/03/03 02:27:16;;;;;;;13.43;8.57;;;4.00;99.90;;;;;;5022697;28;20262;-57
2022/03/03 02:29:43;;;;;;;17.13;10.40;;;4.00;99.90;;;;;;5019030;28;20801;-57
2022/03/03 02:32:10;;;;;;;16.27;10.10;;;4.20;99.90;;;;;;5026054;28;20990;-58
2022/03/03 02:34:37;;;;;;;14.47;10.23;;;4.20;99.90;;;;;;5024552;28;20700;-57
2022/03/03 02:37:04;;;;;;;16.07;10.60;;;4.20;99.90;;;;;;5025254;28;20603;-57
2022/03/03 02:39:31;;;;;;;13.80;10.60;;;4.20;99.90;;;;;;5023577;28;20195;-57
2022/03/03 02:41:58;;;;;;;12.63;9.30;;;4.30;99.90;;;;;;5028251;28;20208;-57
2022/03/03 02:44:25;;;;;;;18.60;10.43;;;4.30;99.90;;;;;;5027512;28;20706;-57
2022/03/03 02:46:52;;;;;;;19.63;10.20;;;4.30;99.90;;;;;;5029104;28;21266;-56
2022/03/03 02:49:18;;;;;;;14.67;10.53;;;4.20;99.90;;;;;;5023898;28;20207;-57
2022/03/03 02:51:45;;;;;;;17.03;10.27;;;4.10;99.90;;;;;;5015964;28;20556;-56
2022/03/03 02:54:12;;;;;;;13.60;10.43;;;3.90;99.90;;;;;;5013756;28;20208;-57
2022/03/03 02:59:25;;;;;;;13.87;9.67;;;3.80;99.90;;;;;;5022398;28;20218;-56
2022/03/03 03:01:52;;;;;;;13.03;9.30;;;3.70;99.90;;;;;;5030469;28;20606;-56
2022/03/03 03:04:19;;;;;;;17.03;10.77;;;3.70;99.90;;;;;;5027309;28;20207;-56
2022/03/03 03:06:46;;;;;;;16.10;10.63;;;3.70;99.90;;;;;;5024230;28;20294;-56
2022/03/03 03:09:13;;;;;;;18.80;9.90;;;3.60;99.90;;;;;;5026572;28;20338;-57
2022/03/03 03:11:40;;;;;;;18.10;10.00;;;3.50;99.90;;;;;;5022983;28;20208;-57
2022/03/03 03:14:07;;;;;;;13.60;10.13;;;3.40;99.90;;;;;;5029552;28;20218;-57
2022/03/03 03:16:34;;;;;;;13.40;9.70;;;3.30;99.90;;;;;;5023004;28;20256;-57
2022/03/03 03:19:01;;;;;;;14.87;9.87;;;3.30;99.90;;;;;;5029388;28;20203;-57
2022/03/03 03:21:28;;;;;;;14.83;10.53;;;3.30;99.90;;;;;;5026220;28;20195;-57
2022/03/03 03:23:55;;;;;;;15.33;10.43;;;3.20;99.90;;;;;;5045055;28;20281;-58
2022/03/03 03:26:22;;;;;;;13.43;9.93;;;3.10;99.90;;;;;;5027028;28;20288;-58
2022/03/03 03:28:49;;;;;;;17.00;10.70;;;3.20;99.90;;;;;;5028049;28;20266;-57
2022/03/03 03:31:15;;;;;;;16.50;10.97;;;3.10;99.90;;;;;;5024033;28;20264;-59
2022/03/03 03:33:42;;;;;;;16.30;10.20;;;3.10;99.90;;;;;;5026452;28;20644;-57
2022/03/03 03:36:09;;;;;;;15.73;10.17;;;3.20;99.90;;;;;;5024432;28;20318;-57
2022/03/03 03:38:36;;;;;;;18.77;10.37;;;3.30;99.90;;;;;;5023340;28;20225;-59
2022/03/03 03:41:03;;;;;;;14.87;9.63;;;3.30;99.90;;;;;;5027098;28;20204;-57
2022/03/03 03:43:30;;;;;;;16.03;10.20;;;3.50;99.90;;;;;;5028524;28;20207;-58
2022/03/03 03:45:57;;;;;;;14.13;9.30;;;3.50;99.90;;;;;;5026745;28;20245;-58
2022/03/03 03:48:23;;;;;;;14.37;10.17;;;3.50;99.90;;;;;;5022509;28;20722;-54
2022/03/03 03:50:51;;;;;;;14.83;9.97;;;3.40;99.90;;;;;;5026090;28;20672;-57
2022/03/03 03:53:17;;;;;;;12.87;9.83;;;3.30;99.90;;;;;;5028254;28;20701;-56
2022/03/03 03:55:44;;;;;;;17.37;10.50;;;3.20;99.90;;;;;;5028484;28;20272;-58
2022/03/03 03:58:11;;;;;;;16.23;10.83;;;3.20;99.90;;;;;;5022822;28;20213;-57
2022/03/03 04:00:38;;;;;;;14.90;10.10;;;3.10;99.90;;;;;;5024931;28;20204;-58
2022/03/03 04:03:05;;;;;;;18.20;10.60;;;3.10;99.90;;;;;;5028029;28;20265;-56
2022/03/03 04:05:33;;;;;;;18.50;9.97;;;3.10;99.90;;;;;;5025049;28;20207;-57
2022/03/03 04:08:00;;;;;;;16.70;10.60;;;3.10;99.90;;;;;;5030569;28;20211;-58
2022/03/03 04:10:28;;;;;;;16.80;10.03;;;3.00;99.90;;;;;;5024647;28;20265;-58
2022/03/03 04:12:55;;;;;;;17.27;10.97;;;3.00;99.90;;;;;;5030596;28;20228;-57
2022/03/03 04:15:22;;;;;;;16.57;10.90;;;2.80;99.90;;;;;;5026317;28;20239;-59
2022/03/03 04:17:50;;;;;;;16.97;10.60;;;2.80;99.90;;;;;;5027743;28;20207;-57
2022/03/03 04:20:18;;;;;;;15.40;10.40;;;2.80;99.90;;;;;;5025984;28;20207;-57
2022/03/03 04:22:45;;;;;;;16.50;10.37;;;2.70;99.90;;;;;;5034334;28;20208;-57
2022/03/03 04:25:12;;;;;;;16.30;9.67;;;2.70;99.90;;;;;;5026837;28;20218;-58
2022/03/03 04:27:40;;;;;;;19.77;10.63;;;2.60;99.90;;;;;;5029563;28;20275;-57
2022/03/03 04:30:09;;;;;;;16.00;9.87;;;2.60;99.90;;;;;;5028255;28;20268;-57
2022/03/03 04:32:37;;;;;;;14.70;10.23;;;2.60;99.90;;;;;;5030335;28;20216;-57
2022/03/03 04:35:04;;;;;;;15.60;10.40;;;2.60;99.90;;;;;;5029518;28;20256;-56
2022/03/03 04:37:32;;;;;;;16.70;10.57;;;2.70;99.90;;;;;;5028261;28;20241;-59
2022/03/03 04:39:59;;;;;;;16.23;11.00;;;2.80;99.90;;;;;;5029339;28;20537;-57
2022/03/03 04:42:26;;;;;;;14.77;9.93;;;3.00;99.90;;;;;;5027929;28;20208;-57
2022/03/03 04:44:53;;;;;;;17.07;9.60;;;3.00;99.90;;;;;;5029183;28;20202;-58
2022/03/03 04:47:19;;;;;;;17.17;10.73;;;3.10;99.90;;;;;;5026474;28;20210;-57
2022/03/03 04:49:46;;;;;;;15.57;9.40;;;3.10;99.90;;;;;;5027220;28;20940;-57
2022/03/03 04:52:13;;;;;;;16.77;10.30;;;3.10;99.90;;;;;;5029669;28;20201;-57
2022/03/03 04:54:40;;;;;;;15.33;10.23;;;3.00;99.90;;;;;;5029038;28;20223;-57
2022/03/03 04:57:07;;;;;;;19.23;11.00;;;3.00;99.90;;;;;;5023163;28;20198;-56
2022/03/03 04:59:34;;;;;;;12.90;9.90;;;3.10;99.90;;;;;;5026640;28;20209;-57
2022/03/03 05:02:01;;;;;;;15.30;10.53;;;3.00;99.90;;;;;;5028369;28;20210;-57
2022/03/03 05:04:28;;;;;;;14.37;11.00;;;2.90;99.90;;;;;;5030276;28;20248;-58
2022/03/03 05:06:55;;;;;;;17.83;11.17;;;3.00;99.90;;;;;;5029387;28;20210;-57
2022/03/03 05:09:22;;;;;;;19.90;11.17;;;3.10;99.90;;;;;;5031390;28;20671;-56
2022/03/03 05:11:49;;;;;;;16.60;10.80;;;3.10;99.90;;;;;;5032146;28;20620;-57
2022/03/03 05:14:15;;;;;;;14.73;10.33;;;3.10;99.90;;;;;;5034996;28;20204;-56
2022/03/03 05:16:42;;;;;;;12.50;9.40;;;2.90;99.90;;;;;;5030825;28;20217;-55
2022/03/03 05:19:09;;;;;;;17.23;10.43;;;2.80;99.90;;;;;;5031476;28;20287;-56
2022/03/03 05:21:36;;;;;;;18.30;11.40;;;2.70;99.90;;;;;;5029936;28;20202;-56
2022/03/03 05:24:03;;;;;;;17.93;11.30;;;2.70;99.90;;;;;;5035676;28;20226;-56
2022/03/03 05:26:30;;;;;;;15.57;10.77;;;2.70;99.90;;;;;;5020535;28;20656;-56
2022/03/03 05:28:57;;;;;;;16.07;10.37;;;2.70;99.90;;;;;;5033977;28;20725;-58
2022/03/03 05:31:24;;;;;;;13.77;10.00;;;2.60;99.90;;;;;;5032569;28;20274;-55
2022/03/03 05:33:51;;;;;;;15.43;10.10;;;2.60;99.90;;;;;;5033113;28;20691;-56
2022/03/03 05:36:18;;;;;;;15.33;9.70;;;2.60;99.90;;;;;;5025781;28;20870;-56
2022/03/03 05:38:45;;;;;;;13.40;10.20;;;2.50;99.90;;;;;;5031693;28;20192;-56
2022/03/03 05:41:12;;;;;;;18.13;10.73;;;2.50;99.90;;;;;;5031273;28;20217;-55
2022/03/03 05:43:39;;;;;;;17.47;10.20;;;2.40;99.90;;;;;;5016330;28;20225;-56
2022/03/03 05:46:05;;;;;;;14.97;10.60;;;2.30;99.90;;;;;;5030326;28;20217;-57
2022/03/03 05:48:33;;;;;;;17.50;10.60;;;2.30;99.90;;;;;;5017870;28;20220;-57
2022/03/03 05:51:00;;;;;;;16.53;11.03;;;2.30;99.90;;;;;;5028726;28;20241;-57
2022/03/03 05:53:27;;;;;;;19.20;10.97;;;2.20;99.90;;;;;;5030590;28;20233;-57
2022/03/03 05:55:58;;;;;;;16.10;9.80;;;2.10;99.90;;;;;;5032176;28;20198;-56
2022/03/03 05:58:35;;;;;;;17.10;10.53;;;2.10;99.90;;;;;;5030809;28;20251;-55
2022/03/03 06:01:02;;;;;;;18.27;10.27;;;2.10;99.90;;;;;;5023415;28;20208;-56
2022/03/03 06:03:33;;;;;;;16.93;10.67;;;2.10;99.90;;;;;;5029163;28;20284;-58
2022/03/03 06:06:21;;;;;;;17.83;10.43;;;2.10;99.90;;;;;;5029097;28;20204;-57
2022/03/03 06:08:54;;;;;;;17.27;10.47;;;2.20;99.90;;;;;;5028479;28;20199;-55
2022/03/03 06:11:24;;;;;;;19.27;11.27;;;2.20;99.90;;;;;;5025692;28;20231;-58
2022/03/03 06:13:53;;;;;;;15.43;9.83;;;2.30;99.90;;;;;;5027007;28;20756;-56
2022/03/03 06:16:20;;;;;;;16.40;10.23;;;2.10;99.90;;;;;;5026450;28;20203;-55
2022/03/03 06:18:49;;;;;;;17.87;10.47;;;2.10;99.90;;;;;;5024983;28;20199;-61
2022/03/03 06:21:17;;;;;;;18.87;10.53;;;2.00;99.90;;;;;;5026615;28;20607;-56
2022/03/03 06:23:45;;;;;;;17.67;10.70;;;2.00;99.90;;;;;;5025330;28;20203;-57
2022/03/03 06:26:15;;;;;;;14.60;10.33;;;2.10;99.90;;;;;;5015567;28;20308;-56
2022/03/03 06:28:42;;;;;;;16.70;11.87;;;2.10;99.90;;;;;;5023261;28;20734;-57
2022/03/03 06:31:09;;;;;;;16.83;12.33;;;2.10;99.90;;;;;;5011909;28;20662;-56
2022/03/03 06:33:36;;;;;;;15.70;10.00;;;2.10;99.90;;;;;;5025181;28;20372;-57
2022/03/03 06:36:03;;;;;;;17.03;10.97;;;2.00;99.90;;;;;;5016609;28;20215;-57
2022/03/03 06:38:31;;;;;;;17.53;10.70;;;2.00;99.90;;;;;;5024886;28;20383;-57
2022/03/03 06:41:05;;;;;;;17.07;11.33;;;2.00;99.90;;;;;;5021769;28;20736;-58
2022/03/03 06:43:34;;;;;;;16.70;10.33;;;2.00;99.90;;;;;;5017885;28;20216;-56
2022/03/03 06:46:02;;;;;;;19.40;10.87;;;2.00;99.90;;;;;;5025961;28;20262;-57
2022/03/03 06:48:29;;;;;;;17.63;11.47;;;2.00;99.90;;;;;;5024858;28;20214;-57
2022/03/03 06:50:56;;;;;;;17.63;11.13;;;2.00;99.90;;;;;;5022956;28;20704;-56
2022/03/03 06:53:29;;;;;;;19.83;11.23;;;2.20;99.90;;;;;;5031288;28;20302;-56
2022/03/03 06:56:06;;;;;;;16.63;10.70;;;2.30;99.90;;;;;;5028885;28;20635;-58
2022/03/03 06:58:35;;;;;;;17.87;10.37;;;2.40;99.90;;;;;;5027390;28;20237;-57
2022/03/03 07:01:04;;;;;;;18.47;11.13;;;2.50;99.90;;;;;;5019492;28;20298;-55
2022/03/03 07:03:32;;;;;;;18.40;10.80;;;2.70;99.90;;;;;;5022956;28;20209;-56
2022/03/03 07:06:01;;;;;;;18.17;10.77;;;2.80;99.90;;;;;;5027684;28;20247;-56
2022/03/03 07:08:28;;;;;;;15.73;10.50;;;3.00;99.90;;;;;;5026353;28;20677;-57
2022/03/03 07:10:55;;;;;;;18.53;10.70;;;3.00;99.90;;;;;;5020726;28;20338;-57
2022/03/03 07:13:22;;;;;;;17.40;11.63;;;3.00;99.90;;;;;;5026728;28;21081;-57
2022/03/03 07:16:02;;;;;;;14.27;10.20;;;3.00;99.90;;;;;;5024347;28;20232;-57
2022/03/03 07:18:38;;;;;;;18.87;10.70;;;3.00;99.90;;;;;;5022898;28;20202;-57
2022/03/03 07:21:22;;;;;;;15.77;10.07;;;2.90;99.90;;;;;;5025768;28;20234;-57
2022/03/03 07:24:12;;;;;;;18.43;10.90;;;3.00;99.90;;;;;;5025856;28;20267;-57
2022/03/03 07:26:41;;;;;;;15.97;10.40;;;3.10;99.90;;;;;;5025341;28;20910;-57
2022/03/03 07:29:11;;;;;;;14.40;9.77;;;3.10;99.90;;;;;;5025857;28;20202;-56
2022/03/03 07:31:50;;;;;;;19.43;11.27;;;3.30;99.90;;;;;;5036082;28;20206;-57
2022/03/03 07:34:23;;;;;;;17.67;11.37;;;3.40;99.90;;;;;;5025448;28;20255;-57
2022/03/03 07:36:52;;;;;;;16.70;10.73;;;3.40;99.90;;;;;;5026430;28;20206;-57
2022/03/03 07:39:22;;;;;;;15.80;10.60;;;3.50;99.90;;;;;;5025932;28;20199;-56
2022/03/03 07:41:50;;;;;;;14.67;10.87;;;3.60;99.90;;;;;;5031319;28;20676;-56
2022/03/03 07:44:16;;;;;;;18.13;10.87;;;3.90;99.90;;;;;;5019912;28;20605;-57
2022/03/03 07:46:44;;;;;;;17.27;10.97;;;4.10;99.90;;;;;;5025204;28;20214;-57
2022/03/03 07:49:12;;;;;;;17.67;11.37;;;4.30;99.90;;;;;;5021881;28;20607;-57
2022/03/03 07:51:40;;;;;;;16.43;11.70;;;4.60;99.90;;;;;;5014816;28;20295;-56
2022/03/03 07:54:07;;;;;;;16.33;10.70;;;4.60;99.90;;;;;;5022718;28;20280;-56
2022/03/03 07:56:40;;;;;;;17.43;11.40;;;4.80;99.90;;;;;;5027624;28;20665;-57
2022/03/03 07:59:11;;;;;;;17.30;11.47;;;4.90;99.90;;;;;;5027342;28;20231;-57
2022/03/03 08:01:38;;;;;;;23.07;11.10;;;5.10;99.90;;;;;;5023962;28;20208;-57
2022/03/03 08:04:06;;;;;;;14.50;10.57;;;5.20;99.90;;;;;;5018341;28;20211;-57
2022/03/03 08:06:34;;;;;;;19.13;10.97;;;5.30;99.90;;;;;;5024210;28;20512;-56
2022/03/03 08:09:01;;;;;;;21.27;10.03;;;5.50;99.90;;;;;;5028486;28;20709;-57
2022/03/03 08:11:29;;;;;;;16.63;10.37;;;5.60;1.00;;;;;;5028352;28;20238;-57
2022/03/03 08:13:56;;;;;;;15.23;10.30;;;5.70;1.00;;;;;;5027800;28;20291;-61
2022/03/03 08:16:24;;;;;;;16.63;11.40;;;5.90;1.00;;;;;;5026531;28;20202;-57
2022/03/03 08:18:57;;;;;;;19.20;11.53;;;6.10;1.00;;;;;;5027934;28;20238;-57
2022/03/03 08:21:24;;;;;;;15.23;10.60;;;6.30;99.90;;;;;;5021278;28;20195;-56
2022/03/03 08:23:51;;;;;;;18.33;11.27;;;6.50;99.90;;;;;;5028108;28;20213;-57
2022/03/03 08:26:18;;;;;;;14.67;10.20;;;6.70;99.90;;;;;;5024464;28;20311;-55
2022/03/03 08:28:45;;;;;;;15.10;10.30;;;7.00;99.90;;;;;;5026703;28;20614;-55
2022/03/03 08:31:19;;;;;;;16.37;11.17;;;7.00;99.90;;;;;;5012886;28;20207;-56
2022/03/03 08:33:53;;;;;;;18.87;11.00;;;7.30;99.90;;;;;;5012644;28;20685;-55
2022/03/03 08:36:29;;;;;;;12.97;9.57;;;7.70;99.90;;;;;;5025193;28;20305;-57
2022/03/03 08:39:04;;;;;;;16.57;10.50;;;7.90;99.90;;;;;;5030605;28;20205;-59
2022/03/03 08:41:42;;;;;;;13.83;10.23;;;7.90;1.00;;;;;;5030754;28;20560;-58
2022/03/03 08:44:11;;;;;;;14.40;10.03;;;8.10;1.00;;;;;;5030015;28;20207;-61
2022/03/03 08:46:41;;;;;;;13.03;9.70;;;8.10;99.90;;;;;;5024231;28;20288;-56
2022/03/03 08:49:11;;;;;;;15.30;10.07;;;8.70;1.00;;;;;;5030482;28;20212;-58
2022/03/03 08:51:39;;;;;;;15.07;10.63;;;8.90;1.00;;;;;;5030524;28;20203;-58
2022/03/03 08:54:06;;;;;;;15.00;10.37;;;9.00;99.90;;;;;;5032506;28;20309;-58
2022/03/03 08:56:33;;;;;;;16.97;10.30;;;9.10;1.00;;;;;;5034325;28;20933;-57
2022/03/03 08:59:01;;;;;;;15.57;10.47;;;9.50;99.90;;;;;;5028645;28;20203;-57
2022/03/03 09:01:29;;;;;;;15.77;10.87;;;9.50;99.90;;;;;;5021866;28;20201;-58
2022/03/03 09:03:58;;;;;;;17.43;10.53;;;9.60;99.90;;;;;;5022646;28;20727;-58
2022/03/03 09:06:26;;;;;;;13.37;9.10;;;10.00;99.90;;;;;;5024893;28;20254;-58
2022/03/03 09:08:53;;;;;;;15.17;10.70;;;9.70;99.90;;;;;;5022847;28;20205;-58
2022/03/03 09:11:20;;;;;;;13.37;9.37;;;10.10;99.90;;;;;;5022947;28;20476;-59
2022/03/03 09:13:47;;;;;;;19.40;10.77;;;10.30;99.90;;;;;;5025055;28;20201;-58
2022/03/03 09:16:16;;;;;;;12.47;9.90;;;10.50;99.90;;;;;;5017670;28;20204;-59
2022/03/03 09:18:47;;;;;;;14.73;10.67;;;10.20;99.90;;;;;;5016260;28;20199;-59
2022/03/03 09:21:15;;;;;;;15.97;10.60;;;9.90;99.90;;;;;;5018260;28;20233;-59
2022/03/03 09:23:42;;;;;;;15.87;10.07;;;9.90;99.90;;;;;;5022314;28;20197;-61
2022/03/03 09:26:10;;;;;;;13.10;9.30;;;10.40;99.90;;;;;;5027863;28;20199;-59
2022/03/03 09:28:38;;;;;;;15.13;10.13;;;10.50;99.90;;;;;;5028006;28;20615;-65
2022/03/03 09:31:05;;;;;;;15.43;10.30;;;10.70;99.90;;;;;;5026016;28;20269;-62
2022/03/03 09:33:31;;;;;;;12.17;9.57;;;10.90;99.90;;;;;;5024358;28;20293;-59
2022/03/03 09:35:58;;;;;;;13.83;10.20;;;10.90;99.90;;;;;;5027723;28;20212;-62
2022/03/03 09:38:25;;;;;;;14.47;10.33;;;11.30;99.90;;;;;;5020565;28;20197;-62
2022/03/03 09:40:52;;;;;;;15.47;10.50;;;11.10;99.90;;;;;;5030580;28;20206;-60
2022/03/03 09:43:20;;;;;;;15.37;9.87;;;11.00;99.90;;;;;;5011522;28;20214;-60
2022/03/03 09:45:47;;;;;;;14.30;9.70;;;11.20;99.90;;;;;;5019432;28;20911;-63
2022/03/03 09:48:16;;;;;;;13.80;9.57;;;11.40;99.90;;;;;;5024741;28;20204;-60
2022/03/03 09:50:43;;;;;;;13.87;8.90;;;11.50;99.90;;;;;;5032704;28;20211;-59
2022/03/03 09:53:13;;;;;;;12.63;9.90;;;11.50;99.90;;;;;;5024103;28;20242;-59
2022/03/03 09:55:41;;;;;;;14.37;10.07;;;11.30;99.90;;;;;;5042854;28;20223;-60
2022/03/03 09:58:08;;;;;;;10.93;8.67;;;11.20;99.90;;;;;;5018840;28;20315;-59
2022/03/03 10:00:37;;;;;;;15.37;10.10;;;11.20;99.90;;;;;;5023083;28;20196;-62
2022/03/03 10:03:10;;;;;;;12.37;9.33;;;11.20;99.90;;;;;;5018107;28;20638;-59
2022/03/03 10:05:42;;;;;;;12.57;9.40;;;11.40;99.90;;;;;;5014712;28;20211;-59
2022/03/03 10:08:11;;;;;;;15.27;10.53;;;11.40;99.90;;;;;;5016201;28;20235;-60
2022/03/03 10:10:44;;;;;;;12.63;9.67;;;11.80;99.90;;;;;;5021611;28;20823;-58
2022/03/03 10:13:14;;;;;;;15.27;10.47;;;11.80;99.90;;;;;;5022697;28;20212;-58
2022/03/03 10:15:43;;;;;;;13.83;10.30;;;11.80;99.90;;;;;;5022822;28;20622;-59
2022/03/03 10:18:16;;;;;;;15.20;10.10;;;11.70;99.90;;;;;;5007180;28;20207;-60
2022/03/03 10:21:00;;;;;;;13.40;9.63;;;11.80;99.90;;;;;;5031853;28;20287;-61
2022/03/03 10:23:35;;;;;;;15.40;9.60;;;11.80;99.90;;;;;;5007406;28;20204;-61
2022/03/03 10:26:08;;;;;;;11.90;8.83;;;11.60;99.90;;;;;;5024194;28;20668;-63
2022/03/03 10:28:36;;;;;;;14.77;9.30;;;11.50;99.90;;;;;;5021793;28;20203;-59
2022/03/03 10:31:16;;;;;;;13.17;9.43;;;11.40;99.90;;;;;;5025324;28;20290;-61
2022/03/03 10:33:49;;;;;;;14.37;9.17;;;11.20;99.90;;;;;;5025909;28;20324;-64
2022/03/03 10:36:22;;;;;;;12.47;9.30;;;11.40;99.90;;;;;;5027908;28;20211;-61
2022/03/03 10:38:52;;;;;;;16.50;9.80;;;11.70;99.90;;;;;;5011189;28;20299;-63
2022/03/03 10:41:33;;;;;;;14.50;9.50;;;11.40;99.90;;;;;;5016028;28;20287;-61
2022/03/03 10:44:16;;;;;;;12.73;9.63;;;11.60;99.90;;;;;;5017287;28;20228;-59
2022/03/03 10:47:04;;;;;;;12.20;8.77;;;11.60;99.90;;;;;;5022019;28;20200;-61
2022/03/03 10:49:32;;;;;;;14.53;9.20;;;11.50;99.90;;;;;;5019619;28;20196;-60
2022/03/03 10:52:21;;;;;;;12.93;9.23;;;11.50;99.90;;;;;;5024699;28;20217;-59
2022/03/03 10:55:01;;;;;;;15.30;9.30;;;11.60;99.90;;;;;;5017021;28;20320;-61
2022/03/03 10:57:40;;;;;;;16.97;9.53;;;11.70;99.90;;;;;;5022140;28;20232;-62
2022/03/03 11:00:19;;;;;;;12.00;8.53;;;11.70;99.90;;;;;;5020276;28;20212;-58
2022/03/03 11:02:48;;;;;;;13.97;8.67;;;11.70;99.90;;;;;;5024123;28;20212;-60
2022/03/03 11:05:16;;;;;;;13.97;9.10;;;11.70;99.90;;;;;;5018002;28;20737;-61
2022/03/03 11:07:46;;;;;;;14.70;9.13;;;11.70;99.90;;;;;;5009760;28;20292;-60
2022/03/03 11:10:15;;;;;;;15.00;8.67;;;11.90;99.90;;;;;;5017236;28;20291;-60
2022/03/03 11:12:43;;;;;;;15.03;8.50;;;11.70;99.90;;;;;;5018022;28;20218;-58
2022/03/03 11:15:12;;;;;;;10.33;8.17;;;11.70;99.90;;;;;;5020032;28;20318;-61
2022/03/03 11:17:39;;;;;;;12.43;9.00;;;11.80;99.90;;;;;;5015799;28;20706;-60
2022/03/03 11:20:09;;;;;;;12.10;8.83;;;12.00;99.90;;;;;;5018678;28;20778;-63
2022/03/03 11:22:35;;;;;;;12.60;8.57;;;12.10;99.90;;;;;;5020689;28;20799;-60
2022/03/03 11:25:08;;;;;;;12.97;8.50;;;12.10;99.90;;;;;;5023613;28;20240;-60
2022/03/03 11:27:37;;;;;;;12.00;8.43;;;12.10;99.90;;;;;;5014513;28;20206;-59
2022/03/03 11:30:16;;;;;;;11.33;8.27;;;11.90;99.90;;;;;;5022573;28;20293;-60
2022/03/03 11:32:45;;;;;;;14.07;9.63;;;12.00;99.90;;;;;;5016553;28;20278;-61
2022/03/03 11:35:15;;;;;;;13.27;8.73;;;12.20;99.90;;;;;;5027919;28;20783;-59
2022/03/03 11:37:45;;;;;;;12.63;8.30;;;12.30;99.90;;;;;;5020252;28;20342;-59
2022/03/03 11:40:19;;;;;;;10.50;8.67;;;12.30;99.90;;;;;;5021316;28;20262;-61
2022/03/03 11:42:55;;;;;;;9.90;7.83;;;12.30;99.90;;;;;;5018624;28;20258;-61
2022/03/03 11:45:37;;;;;;;11.13;8.40;;;12.20;99.90;;;;;;5009459;28;20289;-59
2022/03/03 11:48:17;;;;;;;11.97;8.10;;;12.40;99.90;;;;;;5020145;28;20198;-59
2022/03/03 11:50:43;;;;;;;12.67;8.23;;;12.50;99.90;;;;;;5018755;28;20289;-62
2022/03/03 11:53:10;;;;;;;12.30;9.23;;;12.50;99.90;;;;;;5018578;28;20753;-60
2022/03/03 11:55:50;;;;;;;9.57;7.53;;;12.50;99.90;;;;;;5024646;28;20310;-65
2022/03/03 11:58:21;;;;;;;14.77;8.27;;;12.50;99.90;;;;;;5036148;28;20196;-59
2022/03/03 12:01:13;;;;;;;12.73;8.17;;;13.00;99.90;;;;;;5022547;28;20266;-62
2022/03/03 12:04:05;;;;;;;10.07;7.80;;;13.20;99.90;;;;;;5007646;28;20229;-63
2022/03/03 12:06:43;;;;;;;12.43;9.00;;;13.40;99.90;;;;;;5008423;28;20215;-62
2022/03/03 12:09:26;;;;;;;11.43;7.67;;;13.40;99.90;;;;;;5011458;28;20656;-61
2022/03/03 12:12:16;;;;;;;11.23;8.23;;;13.50;99.90;;;;;;5017332;28;20209;-59
2022/03/03 12:15:01;;;;;;;11.43;8.17;;;13.40;99.90;;;;;;5015598;28;20212;-62
2022/03/03 12:17:42;;;;;;;12.17;7.80;;;13.60;99.90;;;;;;5008412;28;20677;-59
2022/03/03 12:20:24;;;;;;;10.37;8.20;;;13.80;99.90;;;;;;5010633;28;20204;-59
2022/03/03 12:23:18;;;;;;;11.80;8.47;;;14.00;99.90;;;;;;5019401;28;20258;-61
2022/03/03 12:25:59;;;;;;;11.43;8.10;;;13.80;99.90;;;;;;5017687;28;20294;-60
2022/03/03 12:28:39;;;;;;;10.47;7.70;;;13.70;99.90;;;;;;5017975;28;20926;-62
2022/03/03 12:31:27;;;;;;;11.07;8.43;;;13.90;99.90;;;;;;5012490;28;20673;-60
2022/03/03 12:34:06;;;;;;;10.37;7.80;;;14.30;99.90;;;;;;5021833;28;20246;-60
2022/03/03 12:36:36;;;;;;;11.97;7.67;;;14.40;99.90;;;;;;5017660;28;20701;-60
2022/03/03 12:39:07;;;;;;;12.27;8.17;;;14.60;99.90;;;;;;5019240;28;20306;-61
2022/03/03 12:41:35;;;;;;;11.50;8.17;;;15.00;99.90;;;;;;5017888;28;20217;-61
2022/03/03 12:44:09;;;;;;;13.17;8.47;;;15.40;99.90;;;;;;5027626;28;20219;-60
2022/03/03 12:46:37;;;;;;;11.77;8.67;;;15.70;99.90;;;;;;5022657;28;20200;-60
2022/03/03 12:49:06;;;;;;;11.57;8.47;;;15.30;99.90;;;;;;5016189;28;20606;-63
2022/03/03 12:51:33;;;;;;;11.00;8.70;;;15.50;99.90;;;;;;5014658;28;20296;-60
2022/03/03 12:54:07;;;;;;;11.13;8.30;;;15.40;99.90;;;;;;5026014;28;20576;-59
2022/03/03 12:56:34;;;;;;;9.60;7.53;;;15.10;99.90;;;;;;5018206;28;20254;-63